Time;durP1;ratioP1;P1;durP2;ratioP2;P2;SDS_P1;SDS_P2;PMS_P1;PMS_P2;Temp;Humidity;BMP_temperature;BMP_pressure;BME280_temperature;BME280_humidity;BME280_pressure;Samples;Min_cycle;Max_cycle;Signal;HPM_P1;HPM_P2
2021/06/23 00:02:24;;;;;;;9.52;8.52;;;;;;;17.26;85.52;100521.56;5027768;28;20041;-76
2021/06/23 00:04:51;;;;;;;7.57;6.88;;;;;;;17.24;86.27;100523.63;5026030;28;20045;-76
2021/06/23 00:07:16;;;;;;;8.80;7.72;;;;;;;17.25;86.18;100523.41;5028854;28;20038;-76
2021/06/23 00:09:41;;;;;;;11.70;10.00;;;;;;;17.30;85.33;100514.78;5022503;28;20040;-76
2021/06/23 00:12:14;;;;;;;22.85;14.80;;;;;;;17.36;84.60;100522.84;5039510;28;20041;-76
2021/06/23 00:14:40;;;;;;;26.23;16.10;;;;;;;17.35;84.61;100521.22;5032045;28;20033;-75
2021/06/23 00:17:05;;;;;;;25.30;14.57;;;;;;;17.26;85.02;100516.22;5022615;28;20038;-76
2021/06/23 00:19:31;;;;;;;23.27;14.13;;;;;;;17.24;84.81;100515.59;5028411;28;20040;-76
2021/06/23 00:21:56;;;;;;;14.43;9.90;;;;;;;17.16;85.57;100513.88;5031242;28;20029;-76
2021/06/23 00:24:21;;;;;;;13.15;10.57;;;;;;;17.10;85.64;100517.34;5033904;28;20444;-76
2021/06/23 00:26:47;;;;;;;10.30;8.82;;;;;;;17.13;85.78;100516.94;5029596;28;20029;-75
2021/06/23 00:29:12;;;;;;;10.52;8.10;;;;;;;17.16;85.47;100506.72;5032076;28;20037;-76
2021/06/23 00:31:38;;;;;;;13.32;10.85;;;;;;;17.12;85.36;100501.94;5034810;28;20068;-76
2021/06/23 00:34:04;;;;;;;13.90;9.95;;;;;;;17.11;85.29;100506.47;5032744;28;20057;-75
2021/06/23 00:36:29;;;;;;;12.90;10.25;;;;;;;17.12;85.27;100508.09;5028409;28;20046;-75
2021/06/23 00:38:55;;;;;;;13.57;10.95;;;;;;;17.19;85.14;100513.50;5029129;28;20030;-75
2021/06/23 00:41:20;;;;;;;16.80;10.52;;;;;;;17.15;85.27;100518.41;5026296;28;20605;-76
2021/06/23 00:43:46;;;;;;;14.57;10.20;;;;;;;17.17;85.30;100531.56;5035828;28;20074;-76
2021/06/23 00:46:13;;;;;;;18.05;11.73;;;;;;;17.17;85.57;100531.56;5027651;28;20038;-75
2021/06/23 00:48:39;;;;;;;15.40;11.68;;;;;;;17.13;85.70;100533.78;5021310;28;20130;-76
2021/06/23 00:51:05;;;;;;;28.20;13.85;;;;;;;17.10;85.88;100534.19;5020950;28;20442;-75
2021/06/23 00:53:31;;;;;;;19.17;12.45;;;;;;;17.17;85.23;100542.25;5037977;28;20025;-76
2021/06/23 00:55:58;;;;;;;14.98;10.50;;;;;;;17.23;85.08;100538.78;5026516;28;20034;-75
2021/06/23 00:58:25;;;;;;;12.25;10.13;;;;;;;17.18;85.28;100550.09;5028803;28;20032;-75
2021/06/23 01:00:53;;;;;;;12.00;9.30;;;;;;;17.21;84.87;100546.22;5021134;28;20040;-75
2021/06/23 01:03:20;;;;;;;17.52;11.05;;;;;;;17.20;84.80;100549.88;5028958;28;20041;-75
2021/06/23 01:05:46;;;;;;;22.40;12.63;;;;;;;17.26;84.62;100559.00;5057418;28;20383;-76
2021/06/23 01:08:11;;;;;;;20.52;11.35;;;;;;;17.20;84.96;100565.91;5036621;28;20149;-76
2021/06/23 01:10:37;;;;;;;25.05;12.65;;;;;;;17.23;84.53;100564.69;5026408;28;20029;-76
2021/06/23 01:13:21;;;;;;;21.67;12.27;;;;;;;17.22;84.76;100573.75;5026186;28;20384;-76
2021/06/23 01:15:48;;;;;;;18.63;11.10;;;;;;;17.24;84.65;100575.19;5032312;28;20056;-76
2021/06/23 01:18:14;;;;;;;16.42;10.65;;;;;;;17.33;83.89;100574.03;5038056;28;20029;-76
2021/06/23 01:20:44;;;;;;;13.02;9.82;;;;;;;17.34;83.86;100567.66;5025702;28;20033;-76
2021/06/23 01:23:11;;;;;;;12.10;9.33;;;;;;;17.26;84.33;100572.34;5034944;28;20101;-75
2021/06/23 01:25:36;;;;;;;11.68;10.07;;;;;;;17.23;84.36;100570.03;5033681;28;20287;-76
2021/06/23 01:28:03;;;;;;;12.07;9.68;;;;;;;17.21;84.57;100564.91;5039670;28;20072;-76
2021/06/23 01:30:29;;;;;;;10.93;9.65;;;;;;;17.18;84.64;100562.59;5029832;28;20029;-76
2021/06/23 01:32:54;;;;;;;11.45;9.63;;;;;;;17.23;84.72;100565.53;5035466;28;20061;-76
2021/06/23 01:35:20;;;;;;;12.43;10.45;;;;;;;17.19;85.64;100561.59;5032828;28;20037;-76
2021/06/23 01:37:45;;;;;;;9.82;8.68;;;;;;;17.19;85.28;100562.44;5030790;28;20033;-75
2021/06/23 01:40:11;;;;;;;8.68;6.93;;;;;;;17.17;85.50;100561.78;5033496;28;20040;-76
2021/06/23 01:42:37;;;;;;;6.80;5.88;;;;;;;17.14;85.11;100562.19;5036953;28;20033;-76
2021/06/23 01:45:04;;;;;;;9.25;6.43;;;;;;;17.09;85.15;100561.09;5038012;28;20044;-76
2021/06/23 01:47:29;;;;;;;8.50;7.03;;;;;;;17.02;85.22;100553.06;5023232;28;20034;-76
2021/06/23 01:49:55;;;;;;;8.32;7.10;;;;;;;16.93;85.48;100548.88;5032043;28;20117;-76
2021/06/23 01:52:20;;;;;;;9.55;7.32;;;;;;;16.91;85.70;100554.38;5031818;28;20126;-76
2021/06/23 01:54:45;;;;;;;8.88;6.50;;;;;;;16.83;86.02;100553.69;5031779;28;20056;-76
2021/06/23 01:57:13;;;;;;;9.50;6.63;;;;;;;16.80;86.08;100556.75;5029422;28;20033;-76
2021/06/23 01:59:39;;;;;;;9.05;6.45;;;;;;;16.80;85.68;100554.06;5027132;28;20445;-76
2021/06/23 02:02:19;;;;;;;12.55;8.20;;;;;;;16.74;86.24;100551.13;5026556;28;20038;-76
2021/06/23 02:05:13;;;;;;;9.73;8.00;;;;;;;16.69;86.32;100542.06;5026644;28;20041;-76
2021/06/23 02:08:23;;;;;;;10.55;8.38;;;;;;;16.61;86.50;100542.97;5014714;28;20026;-75
2021/06/23 02:11:05;;;;;;;13.13;8.00;;;;;;;16.52;86.88;100544.16;4993724;28;20034;-75
2021/06/23 02:13:36;;;;;;;11.23;8.18;;;;;;;16.52;86.82;100536.16;5032344;28;20029;-75
2021/06/23 02:16:05;;;;;;;;;;;;;;;16.46;86.84;100535.03;5058995;28;20478;-75
2021/06/23 02:18:31;;;;;;;11.57;7.85;;;;;;;16.38;86.95;100529.84;5025746;28;19959;-75
2021/06/23 02:20:58;;;;;;;10.50;7.88;;;;;;;16.39;86.63;100530.66;5040308;28;20061;-75
2021/06/23 02:23:24;;;;;;;11.73;7.10;;;;;;;16.34;87.71;100540.06;5029207;28;20438;-75
2021/06/23 02:25:50;;;;;;;12.10;8.45;;;;;;;16.31;87.35;100545.78;5040467;28;20049;-75
2021/06/23 02:28:17;;;;;;;7.85;5.97;;;;;;;16.37;87.41;100544.19;5024169;28;20085;-76
2021/06/23 02:30:43;;;;;;;12.48;7.47;;;;;;;16.41;87.82;100542.78;5045983;28;20036;-75
2021/06/23 02:33:10;;;;;;;9.82;6.28;;;;;;;16.46;87.87;100551.06;5024548;28;20042;-76
2021/06/23 02:35:37;;;;;;;9.07;6.63;;;;;;;16.46;87.35;100545.72;5035497;28;20036;-76
2021/06/23 02:38:05;;;;;;;13.50;7.82;;;;;;;16.48;87.35;100553.53;5025692;28;20030;-76
2021/06/23 02:40:31;;;;;;;10.27;8.45;;;;;;;16.47;87.33;100554.53;5000607;28;20034;-76
2021/06/23 02:42:57;;;;;;;9.75;7.35;;;;;;;16.46;87.41;100552.91;5004224;28;20056;-75
2021/06/23 02:45:27;;;;;;;14.40;7.97;;;;;;;16.47;86.85;100550.06;5018971;28;20541;-76
2021/06/23 02:47:53;;;;;;;12.00;7.47;;;;;;;16.45;87.21;100549.41;5004160;28;20038;-75
2021/06/23 02:50:18;;;;;;;9.20;7.65;;;;;;;16.48;87.10;100550.88;5005478;28;20034;-75
2021/06/23 02:52:44;;;;;;;13.57;8.70;;;;;;;16.43;87.08;100551.44;5018105;28;20037;-75
2021/06/23 02:55:10;;;;;;;11.07;8.07;;;;;;;16.49;86.66;100560.53;5019559;28;20438;-76
2021/06/23 02:57:36;;;;;;;10.35;7.85;;;;;;;16.43;87.59;100559.44;5009951;28;20168;-75
2021/06/23 03:00:04;;;;;;;11.57;8.98;;;;;;;16.39;87.30;100566.16;5009495;28;20049;-76
2021/06/23 03:02:29;;;;;;;10.55;8.63;;;;;;;16.36;87.01;100569.22;4995121;28;20129;-75
2021/06/23 03:04:55;;;;;;;15.38;10.23;;;;;;;16.35;86.93;100556.88;5004161;28;20177;-75
2021/06/23 03:07:20;;;;;;;13.35;9.25;;;;;;;16.32;86.89;100559.94;5010826;28;20049;-75
2021/06/23 03:09:46;;;;;;;11.50;8.50;;;;;;;16.31;86.74;100560.97;5000070;28;20041;-75
2021/06/23 03:12:13;;;;;;;11.43;7.78;;;;;;;16.26;87.01;100564.19;5002088;28;20448;-76
2021/06/23 03:14:39;;;;;;;10.90;8.82;;;;;;;16.28;86.99;100558.66;5001787;28;20034;-75
2021/06/23 03:17:04;;;;;;;9.57;7.90;;;;;;;16.27;87.03;100560.50;4992091;28;20039;-76
2021/06/23 03:19:30;;;;;;;9.52;7.30;;;;;;;16.26;87.87;100553.53;4991675;28;20046;-75
2021/06/23 03:21:55;;;;;;;10.65;8.50;;;;;;;16.29;87.28;100566.47;4998785;28;20030;-75
2021/06/23 03:24:20;;;;;;;10.60;8.40;;;;;;;16.29;86.86;100569.16;5012598;28;20494;-75
2021/06/23 03:26:46;;;;;;;9.35;7.60;;;;;;;16.30;86.94;100573.50;5005686;28;20038;-75
2021/06/23 03:29:23;;;;;;;9.18;7.00;;;;;;;16.34;86.95;100580.09;5003162;28;20080;-76
2021/06/23 03:31:49;;;;;;;11.43;8.65;;;;;;;16.33;86.96;100578.44;5009813;28;20489;-75
2021/06/23 03:34:14;;;;;;;10.60;8.13;;;;;;;16.31;87.01;100582.31;5010810;28;20038;-75
2021/06/23 03:36:40;;;;;;;8.98;8.05;;;;;;;16.31;86.90;100585.81;5007357;28;20037;-75
2021/06/23 03:39:05;;;;;;;13.23;8.90;;;;;;;16.37;86.97;100588.72;5003656;28;20506;-75
2021/06/23 03:41:31;;;;;;;12.82;8.88;;;;;;;16.32;86.78;100578.63;5009866;28;20124;-75
2021/06/23 03:43:56;;;;;;;10.70;7.90;;;;;;;16.30;86.80;100575.31;5011157;28;20124;-75
2021/06/23 03:46:21;;;;;;;12.70;8.60;;;;;;;16.28;87.30;100580.84;5006065;28;20391;-75
2021/06/23 03:48:47;;;;;;;11.10;8.25;;;;;;;16.32;87.08;100590.13;4990999;28;20043;-75
2021/06/23 03:51:12;;;;;;;10.40;7.95;;;;;;;16.35;87.23;100591.56;4997478;28;20026;-75
2021/06/23 03:53:37;;;;;;;12.15;8.95;;;;;;;16.32;87.43;100590.13;4989453;28;20034;-75
2021/06/23 03:56:03;;;;;;;10.00;8.18;;;;;;;16.31;86.98;100591.13;4997054;28;20431;-76
2021/06/23 03:58:28;;;;;;;10.57;7.50;;;;;;;16.34;87.23;100595.28;4989719;28;20041;-76
2021/06/23 04:00:54;;;;;;;12.05;8.73;;;;;;;16.40;86.81;100594.53;4992459;28;20518;-76
2021/06/23 04:03:19;;;;;;;14.70;8.90;;;;;;;16.37;87.19;100599.41;4990997;28;20581;-76
2021/06/23 04:05:44;;;;;;;10.48;8.45;;;;;;;16.39;86.81;100600.06;4995553;28;20518;-75
2021/06/23 04:08:10;;;;;;;9.07;7.35;;;;;;;16.40;86.68;100597.19;4998250;28;20117;-76
2021/06/23 04:10:35;;;;;;;14.80;7.95;;;;;;;16.41;87.15;100598.03;4994402;28;20034;-75
2021/06/23 04:13:00;;;;;;;8.45;7.05;;;;;;;16.42;87.20;100597.84;5010588;28;20033;-75
2021/06/23 04:15:26;;;;;;;11.88;7.95;;;;;;;16.50;86.87;100594.22;5008566;28;20445;-75
2021/06/23 04:17:51;;;;;;;10.95;7.75;;;;;;;16.49;86.77;100596.06;4991415;28;20495;-76
2021/06/23 04:20:17;;;;;;;11.13;8.48;;;;;;;16.46;86.75;100592.94;4994978;28;20119;-75
2021/06/23 04:22:42;;;;;;;13.35;9.13;;;;;;;16.42;86.63;100589.84;5010617;28;20057;-75
2021/06/23 04:25:10;;;;;;;12.20;9.65;;;;;;;16.39;87.00;100587.53;5011102;28;20048;-76
2021/06/23 04:27:36;;;;;;;13.23;10.43;;;;;;;16.41;86.62;100588.16;5010395;28;20466;-75
2021/06/23 04:30:07;;;;;;;10.38;7.50;;;;;;;16.43;87.14;100594.16;5005487;28;20030;-75
2021/06/23 04:32:32;;;;;;;14.43;9.50;;;;;;;16.43;86.97;100593.31;5027918;28;20026;-75
2021/06/23 04:35:00;;;;;;;12.60;9.43;;;;;;;16.39;87.22;100589.38;5037104;28;20036;-76
2021/06/23 04:37:25;;;;;;;13.43;9.90;;;;;;;16.41;86.92;100584.69;5010652;28;20030;-75
2021/06/23 04:39:51;;;;;;;14.32;10.25;;;;;;;16.29;87.77;100585.16;5003111;28;20117;-75
2021/06/23 04:42:16;;;;;;;13.77;10.07;;;;;;;16.24;87.41;100592.09;4990389;28;20065;-76
2021/06/23 04:44:41;;;;;;;11.98;9.10;;;;;;;16.13;88.74;100588.03;4990919;28;20114;-76
2021/06/23 04:47:07;;;;;;;10.25;8.77;;;;;;;16.03;89.51;100590.19;5003990;28;20039;-76
2021/06/23 04:49:32;;;;;;;12.18;9.27;;;;;;;15.87;90.15;100585.88;4990484;28;20477;-76
2021/06/23 04:51:57;;;;;;;15.27;10.73;;;;;;;15.84;89.92;100583.56;5004125;28;20418;-75
2021/06/23 04:54:23;;;;;;;11.25;9.27;;;;;;;15.79;89.86;100583.31;4989741;28;20058;-75
2021/06/23 04:56:48;;;;;;;12.65;10.00;;;;;;;15.80;89.50;100588.47;5003261;28;20042;-76
2021/06/23 04:59:13;;;;;;;16.95;11.57;;;;;;;15.72;90.68;100593.88;4990976;28;20038;-77
2021/06/23 05:01:39;;;;;;;15.43;11.48;;;;;;;15.66;91.41;100602.56;4995322;28;20061;-76
2021/06/23 05:04:04;;;;;;;13.73;10.02;;;;;;;15.67;90.37;100601.56;5005479;28;20399;-77
2021/06/23 05:06:29;;;;;;;14.70;11.10;;;;;;;15.65;90.31;100614.25;4991397;28;20041;-76
2021/06/23 05:08:54;;;;;;;10.55;9.40;;;;;;;15.66;90.86;100623.88;5006836;28;20386;-76
2021/06/23 05:11:20;;;;;;;13.43;10.45;;;;;;;15.67;91.88;100617.56;5012832;28;20064;-76
2021/06/23 05:13:45;;;;;;;12.13;10.32;;;;;;;15.68;91.42;100613.88;4999269;28;20063;-76
2021/06/23 05:16:11;;;;;;;12.70;9.95;;;;;;;15.70;91.54;100609.22;4994375;28;20403;-76
2021/06/23 05:18:36;;;;;;;12.98;9.77;;;;;;;15.69;90.92;100599.53;4993425;28;20041;-76
2021/06/23 05:21:03;;;;;;;15.63;11.10;;;;;;;15.67;91.25;100596.22;4996616;28;20050;-77
2021/06/23 05:23:29;;;;;;;12.75;9.82;;;;;;;15.60;91.63;100609.47;4993585;28;20114;-76
2021/06/23 05:25:54;;;;;;;14.75;10.48;;;;;;;15.56;91.73;100610.00;5000486;28;20185;-76
2021/06/23 05:28:20;;;;;;;15.57;10.75;;;;;;;15.58;91.15;100616.81;5006027;28;20041;-76
2021/06/23 05:30:45;;;;;;;11.02;9.38;;;;;;;15.58;91.12;100623.97;5012927;28;20172;-76
2021/06/23 05:33:11;;;;;;;13.90;10.00;;;;;;;15.60;91.73;100621.97;5011177;28;20037;-76
2021/06/23 05:35:36;;;;;;;14.95;10.07;;;;;;;15.60;91.66;100625.44;5005021;28;20131;-77
2021/06/23 05:38:01;;;;;;;11.27;8.63;;;;;;;15.64;93.00;100629.41;5003666;28;20034;-78
2021/06/23 05:40:27;;;;;;;11.75;9.00;;;;;;;15.68;92.20;100638.72;5001217;28;20049;-76
2021/06/23 05:42:52;;;;;;;12.13;9.73;;;;;;;15.67;92.39;100638.88;5010900;28;20109;-77
2021/06/23 05:45:17;;;;;;;10.27;8.27;;;;;;;15.71;92.96;100641.03;5012475;28;20045;-77
2021/06/23 05:47:43;;;;;;;14.00;9.38;;;;;;;15.71;92.54;100646.38;4999111;28;20038;-77
2021/06/23 05:50:09;;;;;;;13.68;10.48;;;;;;;15.71;92.52;100641.03;4998809;28;20172;-77
2021/06/23 05:52:34;;;;;;;13.02;9.80;;;;;;;15.72;92.56;100639.19;4996688;28;20041;-78
2021/06/23 05:55:00;;;;;;;10.82;9.13;;;;;;;15.70;92.66;100647.38;4997553;28;20026;-78
2021/06/23 05:57:25;;;;;;;12.10;9.52;;;;;;;15.73;92.82;100653.34;5012799;28;20053;-77
2021/06/23 05:59:50;;;;;;;12.05;8.55;;;;;;;15.74;92.68;100655.84;5007528;28;20117;-77
2021/06/23 06:02:16;;;;;;;13.02;9.93;;;;;;;15.73;92.73;100661.34;4996725;28;20042;-77
2021/06/23 06:04:41;;;;;;;12.95;10.48;;;;;;;15.73;94.18;100659.53;4992831;28;20113;-78
2021/06/23 06:07:06;;;;;;;13.45;10.75;;;;;;;15.63;95.20;100659.72;5001795;28;20042;-76
2021/06/23 06:09:32;;;;;;;14.45;11.00;;;;;;;15.65;94.88;100668.38;5010350;28;20030;-77
2021/06/23 06:11:57;;;;;;;10.65;8.98;;;;;;;15.70;95.61;100679.34;5012092;28;20073;-77
2021/06/23 06:14:22;;;;;;;12.13;9.70;;;;;;;15.71;95.12;100682.88;4993277;28;20073;-77
2021/06/23 06:16:48;;;;;;;10.95;8.93;;;;;;;15.70;95.17;100670.53;4993831;28;20030;-77
2021/06/23 06:19:13;;;;;;;10.10;7.45;;;;;;;15.73;97.48;100677.34;4994595;28;20129;-78
2021/06/23 06:21:39;;;;;;;11.30;9.38;;;;;;;15.73;96.77;100678.19;4998471;28;20495;-77
2021/06/23 06:24:04;;;;;;;10.60;8.93;;;;;;;15.74;97.51;100677.16;5003375;28;20030;-77
2021/06/23 06:26:30;;;;;;;13.70;8.98;;;;;;;15.77;96.45;100671.47;5011956;28;20390;-77
2021/06/23 06:28:56;;;;;;;14.45;11.40;;;;;;;15.78;95.94;100680.28;5009370;28;20065;-77
2021/06/23 06:31:21;;;;;;;17.35;10.73;;;;;;;15.83;95.54;100686.75;4992764;28;20292;-77
2021/06/23 06:33:48;;;;;;;15.27;11.20;;;;;;;15.87;97.09;100688.03;4992384;28;20046;-77
2021/06/23 06:36:13;;;;;;;14.98;11.13;;;;;;;15.91;96.53;100689.31;4999097;28;20037;-77
2021/06/23 06:38:39;;;;;;;14.40;10.02;;;;;;;15.97;98.27;100685.09;5011017;28;20126;-77
2021/06/23 06:41:04;;;;;;;19.55;13.60;;;;;;;16.09;96.77;100680.97;5000951;28;20038;-77
2021/06/23 06:43:30;;;;;;;18.02;12.63;;;;;;;16.43;97.33;100678.75;4994825;28;20045;-77
2021/06/23 06:45:56;;;;;;;19.65;12.98;;;;;;;16.79;95.99;100689.44;5003951;28;20045;-77
2021/06/23 06:48:23;;;;;;;17.85;11.70;;;;;;;17.04;95.85;100700.63;5008297;28;20057;-77
2021/06/23 06:50:49;;;;;;;16.88;11.35;;;;;;;17.10;96.64;100694.50;4992451;28;20529;-77
2021/06/23 06:53:15;;;;;;;14.48;11.27;;;;;;;17.12;94.98;100694.31;5003397;28;20129;-77
2021/06/23 06:55:40;;;;;;;15.60;10.93;;;;;;;17.04;93.80;100703.28;5008842;28;20069;-77
2021/06/23 06:58:05;;;;;;;14.07;10.90;;;;;;;17.05;93.85;100694.25;4991541;28;20522;-77
2021/06/23 07:00:31;;;;;;;15.23;10.50;;;;;;;17.09;93.61;100700.88;5002910;28;20041;-77
2021/06/23 07:02:57;;;;;;;12.02;8.82;;;;;;;17.19;93.80;100704.06;4996001;28;20089;-77
2021/06/23 07:05:23;;;;;;;13.30;9.80;;;;;;;17.30;91.80;100716.06;5010785;28;20100;-77
2021/06/23 07:07:48;;;;;;;16.10;10.98;;;;;;;17.24;91.73;100708.00;4999284;28;20038;-78
2021/06/23 07:10:13;;;;;;;13.30;9.73;;;;;;;17.30;91.67;100705.38;4992898;28;20484;-77
2021/06/23 07:12:39;;;;;;;11.25;8.90;;;;;;;17.44;91.11;100710.84;5003520;28;20041;-77
2021/06/23 07:15:05;;;;;;;13.57;10.00;;;;;;;17.46;90.99;100706.97;5010568;28;20506;-76
2021/06/23 07:17:31;;;;;;;10.80;9.07;;;;;;;17.54;91.01;100704.16;5002926;28;20038;-78
2021/06/23 07:19:56;;;;;;;13.27;8.60;;;;;;;17.71;89.69;100704.72;5020804;28;20029;-77
2021/06/23 07:22:23;;;;;;;12.15;10.40;;;;;;;17.74;90.28;100698.16;4993790;28;20042;-77
2021/06/23 07:24:49;;;;;;;13.05;10.52;;;;;;;17.82;89.32;100708.72;5009803;28;20157;-77
2021/06/23 07:27:14;;;;;;;12.30;9.90;;;;;;;17.96;89.35;100702.44;5011700;28;20030;-78
2021/06/23 07:29:39;;;;;;;12.93;10.57;;;;;;;17.99;88.43;100711.91;4992182;28;20273;-78
2021/06/23 07:32:08;;;;;;;11.65;9.98;;;;;;;17.89;89.00;100706.91;4999139;28;20041;-77
2021/06/23 07:37:07;;;;;;;15.77;10.57;;;;;;;18.23;88.36;100708.78;4991543;28;20034;-77
2021/06/23 07:39:34;;;;;;;12.90;10.98;;;;;;;18.25;88.58;100711.25;5005433;28;20037;-77
2021/06/23 07:42:01;;;;;;;13.50;10.82;;;;;;;18.35;88.67;100700.19;5010161;28;20502;-77
2021/06/23 07:44:40;;;;;;;12.90;9.98;;;;;;;18.42;87.89;100693.84;5009136;28;20049;-78
2021/06/23 07:47:08;;;;;;;16.95;11.50;;;;;;;18.40;87.00;100700.41;4999952;28;20064;-77
2021/06/23 07:49:39;;;;;;;12.20;9.60;;;;;;;18.62;87.51;100709.16;4999070;28;20108;-77
2021/06/23 07:55:10;;;;;;;11.63;9.48;;;;;;;18.69;86.61;100712.69;5009131;28;20034;-76
2021/06/23 08:08:39;;;;;;;8.20;6.80;;;;;;;21.71;79.35;100701.88;4999846;28;20116;-78
2021/06/23 08:11:15;;;;;;;8.45;6.55;;;;;;;22.27;76.58;100703.63;4999886;28;20168;-78
2021/06/23 08:13:41;;;;;;;7.60;6.15;;;;;;;23.04;77.61;100706.56;5021349;28;20702;-77
2021/06/23 08:16:06;;;;;;;10.88;7.15;;;;;;;23.38;71.03;100704.19;5001194;28;20034;-78
2021/06/23 08:18:32;;;;;;;6.38;5.30;;;;;;;22.97;72.97;100705.00;5002040;28;20035;-78
2021/06/23 08:20:57;;;;;;;9.23;7.03;;;;;;;22.45;74.05;100702.78;4997049;28;20161;-77
2021/06/23 08:23:22;;;;;;;6.68;5.78;;;;;;;22.29;73.44;100703.41;4991685;28;20072;-78
2021/06/23 08:25:48;;;;;;;5.95;5.00;;;;;;;22.22;74.74;100707.00;5005788;28;20037;-78
2021/06/23 08:28:13;;;;;;;9.40;6.28;;;;;;;22.27;76.67;100701.75;5025354;28;20048;-77
2021/06/23 08:30:38;;;;;;;9.43;7.18;;;;;;;22.64;74.45;100709.81;5005754;28;20445;-78
2021/06/23 08:33:04;;;;;;;7.05;5.97;;;;;;;22.74;73.90;100711.13;4988990;28;20498;-77
2021/06/23 08:35:30;;;;;;;9.10;7.35;;;;;;;23.04;72.39;100711.97;4990546;28;20045;-78
2021/06/23 08:37:55;;;;;;;6.65;5.65;;;;;;;23.55;69.27;100715.16;4992662;28;20194;-77
2021/06/23 08:40:21;;;;;;;5.75;4.80;;;;;;;24.59;69.13;100712.59;5009899;28;20049;-78
2021/06/23 08:42:47;;;;;;;7.95;6.70;;;;;;;25.29;64.72;100717.97;5004445;28;20034;-77
2021/06/23 08:45:13;;;;;;;7.32;5.75;;;;;;;24.18;65.11;100721.75;4997074;28;20034;-78
2021/06/23 08:47:40;;;;;;;5.32;4.72;;;;;;;24.08;67.49;100710.72;5013680;28;20041;-78
2021/06/23 08:50:06;;;;;;;6.57;5.75;;;;;;;23.80;67.96;100720.34;4998961;28;20214;-78
2021/06/23 08:52:31;;;;;;;4.53;4.10;;;;;;;24.44;65.73;100706.88;5012967;28;20534;-77
2021/06/23 08:54:57;;;;;;;7.75;6.13;;;;;;;24.23;64.24;100704.81;5013023;28;20184;-77
2021/06/23 08:57:23;;;;;;;5.80;5.25;;;;;;;23.94;65.66;100699.34;5012496;28;20030;-77
2021/06/23 08:59:48;;;;;;;5.50;4.85;;;;;;;23.96;65.76;100699.91;5011480;28;20120;-77
2021/06/23 09:02:15;;;;;;;5.13;4.35;;;;;;;23.81;69.95;100708.50;5029869;28;20513;-77
2021/06/23 09:04:58;;;;;;;7.50;5.78;;;;;;;23.73;69.23;100706.13;5013430;28;20052;-77
2021/06/23 09:07:37;;;;;;;5.93;5.32;;;;;;;23.42;69.16;100705.38;5020237;28;20517;-77
2021/06/23 09:10:27;;;;;;;6.85;6.22;;;;;;;23.07;68.59;100716.94;5012930;28;20113;-77
2021/06/23 09:13:08;;;;;;;5.47;4.75;;;;;;;22.78;72.02;100705.03;5024022;28;20064;-77
2021/06/23 09:15:40;;;;;;;5.03;4.53;;;;;;;22.68;71.88;100710.97;5028444;28;20149;-77
2021/06/23 09:18:16;;;;;;;4.53;3.80;;;;;;;22.65;74.03;100703.34;5021411;28;20030;-77
2021/06/23 09:20:42;;;;;;;5.30;4.80;;;;;;;22.82;69.22;100700.03;5018115;28;20033;-77
2021/06/23 09:23:09;;;;;;;7.28;6.57;;;;;;;22.59;70.61;100700.75;5020711;28;20043;-77
2021/06/23 09:25:36;;;;;;;6.30;5.15;;;;;;;22.66;71.58;100702.28;5017772;28;20414;-78
2021/06/23 09:28:05;;;;;;;6.60;5.90;;;;;;;22.76;70.67;100698.25;5023656;28;20041;-78
2021/06/23 09:30:34;;;;;;;4.55;4.15;;;;;;;22.88;69.83;100691.84;5036363;28;20037;-78
2021/06/23 09:33:25;;;;;;;5.68;5.13;;;;;;;23.11;69.87;100698.41;5037668;28;20029;-78
2021/06/23 09:35:56;;;;;;;5.17;4.27;;;;;;;23.39;70.51;100696.94;5036289;28;20037;-78
2021/06/23 09:38:37;;;;;;;6.47;5.00;;;;;;;23.38;68.95;100701.50;5051315;28;20124;-78
2021/06/23 09:41:17;;;;;;;5.85;4.75;;;;;;;23.34;68.22;100694.13;5035632;28;20064;-78
2021/06/23 09:43:43;;;;;;;7.15;5.15;;;;;;;23.15;67.87;100698.78;5035396;28;20434;-78
2021/06/23 09:46:31;;;;;;;4.95;4.45;;;;;;;23.04;69.17;100690.41;5049722;28;20037;-78
2021/06/23 09:49:24;;;;;;;4.43;3.97;;;;;;;22.89;70.66;100690.78;5033548;28;20041;-78
2021/06/23 09:51:50;;;;;;;6.07;5.40;;;;;;;22.80;70.48;100691.34;5031978;28;20030;-78
2021/06/23 09:54:19;;;;;;;5.57;4.80;;;;;;;22.84;69.39;100690.66;5034090;28;20034;-78
2021/06/23 09:56:47;;;;;;;5.93;4.50;;;;;;;22.94;69.73;100692.00;5034058;28;20037;-78
2021/06/23 09:59:38;;;;;;;7.10;6.40;;;;;;;22.59;69.42;100687.28;5032634;28;20394;-78
2021/06/23 10:02:04;;;;;;;5.97;5.03;;;;;;;22.79;69.72;100687.03;5033225;28;20039;-77
2021/06/23 10:04:36;;;;;;;6.90;6.20;;;;;;;22.75;69.64;100686.63;5032869;28;20033;-77
2021/06/23 10:07:04;;;;;;;5.25;4.72;;;;;;;22.84;69.12;100693.34;5033445;28;20049;-77
2021/06/23 10:09:31;;;;;;;4.43;4.03;;;;;;;22.94;72.36;100687.41;5032760;28;20041;-78
2021/06/23 10:12:01;;;;;;;5.30;4.80;;;;;;;23.08;68.51;100688.06;5036780;28;20033;-77
2021/06/23 10:14:30;;;;;;;5.80;4.70;;;;;;;23.24;68.16;100676.63;5052802;28;20024;-78
2021/06/23 10:16:57;;;;;;;7.43;4.32;;;;;;;23.20;67.85;100678.13;5052529;28;20032;-78
2021/06/23 10:19:22;;;;;;;5.18;4.60;;;;;;;23.11;68.71;100677.63;5052856;28;20086;-78
2021/06/23 10:21:49;;;;;;;4.65;4.13;;;;;;;23.07;68.64;100678.31;5068005;28;20029;-78
2021/06/23 10:24:16;;;;;;;4.30;3.90;;;;;;;23.20;71.00;100674.63;5050517;28;20037;-78
2021/06/23 10:26:50;;;;;;;3.70;3.30;;;;;;;23.53;68.78;100674.88;5052217;28;20056;-78
2021/06/23 10:29:21;;;;;;;4.50;3.85;;;;;;;24.12;64.59;100674.88;5023124;28;20112;-78
2021/06/23 10:31:47;;;;;;;4.10;3.70;;;;;;;24.39;64.50;100671.63;5027348;28;20032;-76
2021/06/23 10:34:15;;;;;;;4.25;3.35;;;;;;;24.22;65.50;100674.28;5022493;28;20069;-77
2021/06/23 10:36:42;;;;;;;4.25;3.33;;;;;;;24.04;68.54;100669.03;5012804;28;20398;-76
2021/06/23 10:39:08;;;;;;;5.93;5.07;;;;;;;24.24;63.78;100671.31;5012223;28;20038;-77
2021/06/23 10:41:42;;;;;;;4.38;3.97;;;;;;;24.67;62.74;100667.31;5015900;28;20033;-76
2021/06/23 10:44:22;;;;;;;4.47;3.97;;;;;;;24.85;61.28;100661.72;5031029;28;20042;-76
2021/06/23 10:46:50;;;;;;;5.17;4.20;;;;;;;25.09;59.08;100653.47;5013319;28;20048;-76
2021/06/23 10:49:18;;;;;;;4.00;3.30;;;;;;;25.16;59.71;100662.25;5010469;28;20084;-77
2021/06/23 10:51:47;;;;;;;3.80;3.40;;;;;;;24.87;60.61;100656.06;5029031;28;20391;-78
2021/06/23 10:54:34;;;;;;;3.63;3.03;;;;;;;24.72;62.08;100653.91;5031193;28;20143;-76
2021/06/23 10:57:00;;;;;;;8.85;5.25;;;;;;;24.48;60.53;100645.06;5012355;28;20061;-77
2021/06/23 10:59:33;;;;;;;4.20;3.40;;;;;;;24.34;64.82;100647.22;5011716;28;20529;-76
2021/06/23 11:02:13;;;;;;;4.00;3.40;;;;;;;24.47;63.81;100638.84;5028292;28;20041;-77
2021/06/23 11:05:02;;;;;;;5.57;3.40;;;;;;;24.76;61.56;100644.25;5029970;28;20036;-77
2021/06/23 11:07:36;;;;;;;3.92;3.53;;;;;;;24.99;61.18;100646.81;5028255;28;20818;-77
2021/06/23 11:10:35;;;;;;;3.92;3.53;;;;;;;25.10;61.23;100645.13;5030125;28;20041;-76
2021/06/23 11:13:04;;;;;;;4.50;4.03;;;;;;;24.96;61.12;100643.78;5036094;28;20128;-77
2021/06/23 11:15:35;;;;;;;3.30;3.00;;;;;;;24.68;61.91;100648.16;5040235;28;20036;-76
2021/06/23 11:18:19;;;;;;;;;;;;;;;24.46;61.13;100647.19;5031984;28;20569;-77
2021/06/23 11:20:48;;;;;;;5.07;4.57;;;;;;;24.58;60.94;100651.50;5030572;28;19913;-77
2021/06/23 11:23:47;;;;;;;5.15;3.50;;;;;;;24.93;61.31;100655.09;5031418;28;20029;-78
2021/06/23 11:26:38;;;;;;;4.18;3.75;;;;;;;25.35;58.71;100650.13;5032737;28;20116;-76
2021/06/23 11:29:09;;;;;;;6.43;4.50;;;;;;;25.45;59.35;100649.47;5028232;28;20132;-77
2021/06/23 11:31:46;;;;;;;5.53;4.80;;;;;;;25.37;59.14;100649.91;5030409;28;20405;-76
2021/06/23 11:34:41;;;;;;;4.45;3.70;;;;;;;25.38;59.38;100646.09;5029005;28;20562;-76
2021/06/23 11:37:18;;;;;;;4.60;3.60;;;;;;;25.44;58.27;100655.97;5029584;28;20155;-77
2021/06/23 11:39:44;;;;;;;4.60;3.83;;;;;;;25.43;58.20;100652.44;5026604;28;20053;-78
2021/06/23 11:42:10;;;;;;;3.15;2.80;;;;;;;25.40;57.59;100662.94;5022333;28;20058;-77